Terminal Aerodrome Forecast
Issued by NWS Atlanta, GA

Home | Current Version | Previous Version | Text Only | Print | Product List | Glossary On
Versions: 1 2 3 4 5 6 7 8 9 10 11 12 13 14 15 16 17 18 19 20 21 22 23 24 25 26 27 28 29 30 31 32 33 34 35
468
FTUS42 KFFC 220941 AAB
TAFATL
TAF AMD
KATL 220941Z 2210/2312 22005KT P6SM SKC
     FM221500 22010KT P6SM FEW040
     FM221800 22012G20KT P6SM SCT050
     FM230000 21008KT P6SM SCT050
     FM230400 22005KT P6SM VCSH BKN050 PROB30 2306/2312 5SM -TSRA BR
      BKN025CB=

USA.gov is the U.S. government's official web portal to all federal, state and local government web resources and services.